Devers, Texas
Current Conditions -  °F | °C
As of 9:55 PM on Saturday 22 Nov 2014 (Local Time) from KBMT Reporting Station
Thunderstorm Thunderstorm  
Wind Chill: 65°   Ceiling: 700
Heat Index: 65°   Visibility: 10mi
Dew Point: 64°   Wind: 7mph
Humidity: 98%   Direction: 130°SE
Pressure: 29.82"   Gusts: NA
Location:  30.03°N, 94.59°W
Report Text: KBMT 230355Z AUTO 13006KT 10SM -VCTSRA OVC007 18/18 A2982 RMK AO2 LTG DSNT SE THRU W T01810178
Loading
Personal Weather Stations






























Interactive Weather Map New forecast layout! Learn more

10-Day Weather Forecast

Advertisements
Track Severe Weather on mobile